createdAt,value
2024-02-29T00:01:47.667Z,93.00
2024-02-29T00:04:15.977Z,93.20
2024-02-29T00:06:43.729Z,93.28
2024-02-29T00:09:11.387Z,93.12
2024-02-29T00:11:39.191Z,93.06
2024-02-29T00:14:08.444Z,93.20
2024-02-29T00:16:36.196Z,93.07
2024-02-29T00:19:04.500Z,93.18
2024-02-29T00:21:34.484Z,93.22
2024-02-29T00:24:02.241Z,93.08
2024-02-29T00:26:30.004Z,92.90
2024-02-29T00:28:57.711Z,92.55
2024-02-29T00:31:26.794Z,92.77
2024-02-29T00:33:54.554Z,92.44
2024-02-29T00:36:22.414Z,92.29
2024-02-29T00:38:58.588Z,92.29
2024-02-29T00:41:30.004Z,92.10
2024-02-29T00:43:57.657Z,92.37
2024-02-29T00:46:26.851Z,91.99
2024-02-29T00:48:54.812Z,91.97
2024-02-29T00:51:22.663Z,92.20
2024-02-29T00:53:50.391Z,91.96
2024-02-29T00:56:18.767Z,91.77
2024-02-29T00:58:46.586Z,92.20
2024-02-29T01:01:14.474Z,92.18
2024-02-29T01:03:43.765Z,91.93
2024-02-29T01:06:12.330Z,92.30
2024-02-29T01:08:40.091Z,92.19
2024-02-29T01:11:07.949Z,92.01
2024-02-29T01:13:36.234Z,91.81
2024-02-29T01:16:04.165Z,92.08
2024-02-29T01:18:31.985Z,91.85
2024-02-29T01:21:01.297Z,91.68
2024-02-29T01:23:29.064Z,91.86
2024-02-29T01:25:56.959Z,91.75
2024-02-29T01:28:24.732Z,91.90
2024-02-29T01:30:52.597Z,91.84
2024-02-29T01:33:20.390Z,91.84
2024-02-29T01:35:48.088Z,91.37
2024-02-29T01:38:17.175Z,91.28
2024-02-29T01:40:46.724Z,91.62
2024-02-29T01:43:14.623Z,91.44
2024-02-29T01:45:42.479Z,91.44
2024-02-29T01:48:11.025Z,91.28
2024-02-29T01:50:39.537Z,91.06
2024-02-29T01:53:07.861Z,90.82
2024-02-29T01:55:37.056Z,90.84
2024-02-29T01:58:05.615Z,90.94
2024-02-29T02:00:34.284Z,90.56
2024-02-29T02:03:02.108Z,90.53
2024-02-29T02:05:29.877Z,90.41
2024-02-29T02:07:57.637Z,89.93
2024-02-29T02:10:25.422Z,89.82
2024-02-29T02:12:54.656Z,89.55
2024-02-29T02:15:22.535Z,89.26
2024-02-29T02:17:51.287Z,89.35
2024-02-29T02:20:20.499Z,88.69
2024-02-29T02:22:48.292Z,88.56
2024-02-29T02:25:16.209Z,88.21
2024-02-29T02:27:44.167Z,88.07
2024-02-29T02:30:12.828Z,88.24
2024-02-29T02:32:41.281Z,88.03
2024-02-29T02:35:10.271Z,87.90
2024-02-29T02:37:39.394Z,87.99
2024-02-29T02:40:08.413Z,87.15
2024-02-29T02:42:36.231Z,87.19
2024-02-29T02:45:04.058Z,87.13
2024-02-29T02:47:31.877Z,86.78
2024-02-29T02:49:59.631Z,86.37
2024-02-29T02:52:27.507Z,86.34
2024-02-29T02:54:56.753Z,86.23
2024-02-29T02:57:24.507Z,86.29
2024-02-29T02:59:52.277Z,85.90
2024-02-29T03:02:20.086Z,86.63
2024-02-29T03:04:47.928Z,86.54
2024-02-29T03:07:15.796Z,85.94
2024-02-29T03:09:43.828Z,86.27
2024-02-29T03:12:12.924Z,85.90
2024-02-29T03:14:40.692Z,85.84
2024-02-29T03:17:08.497Z,85.93
2024-02-29T03:19:36.293Z,86.13
2024-02-29T03:22:04.694Z,85.92
2024-02-29T03:24:32.559Z,86.14
2024-02-29T03:27:00.439Z,85.91
2024-02-29T03:29:30.856Z,86.01
2024-02-29T03:31:58.542Z,85.71
2024-02-29T03:34:26.310Z,86.18
2024-02-29T03:36:54.099Z,85.89
2024-02-29T03:39:22.093Z,86.12
2024-02-29T03:41:49.983Z,85.94
2024-02-29T03:44:18.029Z,86.15
2024-02-29T03:46:47.128Z,86.08
2024-02-29T03:49:15.054Z,86.34
2024-02-29T03:51:42.964Z,86.23
2024-02-29T03:54:10.832Z,86.32
2024-02-29T03:56:38.761Z,86.34
2024-02-29T03:59:06.867Z,86.27
2024-02-29T04:01:35.127Z,86.27
2024-02-29T04:04:04.816Z,86.21
2024-02-29T04:06:32.594Z,87.00
2024-02-29T04:09:00.325Z,86.66
2024-02-29T04:11:28.102Z,86.78
2024-02-29T04:13:55.844Z,87.06
2024-02-29T04:16:23.837Z,86.98
2024-02-29T04:18:52.094Z,86.80
2024-02-29T04:21:21.243Z,87.11
2024-02-29T04:23:49.006Z,87.18
2024-02-29T04:26:19.761Z,87.02
2024-02-29T04:28:47.511Z,87.01
2024-02-29T04:31:15.319Z,86.98
2024-02-29T04:33:43.168Z,87.33
2024-02-29T04:36:10.953Z,87.07
2024-02-29T04:38:40.059Z,87.44
2024-02-29T04:41:07.896Z,87.52
2024-02-29T04:43:36.398Z,87.44
2024-02-29T04:46:04.481Z,87.62
2024-02-29T04:48:32.234Z,87.46
2024-02-29T04:50:59.948Z,87.33
2024-02-29T04:53:27.678Z,87.39
2024-02-29T04:55:57.449Z,87.40
2024-02-29T04:58:25.222Z,87.68
2024-02-29T05:00:53.192Z,87.53
2024-02-29T05:03:22.262Z,87.30
2024-02-29T05:05:50.041Z,87.67
2024-02-29T05:08:17.770Z,87.70
2024-02-29T05:10:45.581Z,87.61
2024-02-29T05:13:14.789Z,87.62
2024-02-29T05:15:42.632Z,87.56
2024-02-29T05:18:10.603Z,87.50
2024-02-29T05:20:38.366Z,87.58
2024-02-29T05:23:07.040Z,87.58
2024-02-29T05:25:36.748Z,87.39
2024-02-29T05:28:04.565Z,87.32
2024-02-29T05:30:33.814Z,87.42
2024-02-29T05:33:01.610Z,87.40
2024-02-29T05:35:29.380Z,87.28
2024-02-29T05:37:59.201Z,87.50
2024-02-29T05:40:27.820Z,87.31
2024-02-29T05:42:55.724Z,87.51
2024-02-29T05:45:23.475Z,87.52
2024-02-29T05:47:52.725Z,87.71
2024-02-29T05:50:20.462Z,87.49
2024-02-29T05:52:48.157Z,87.53
2024-02-29T05:55:16.022Z,87.51
2024-02-29T05:57:43.769Z,87.48
2024-02-29T06:00:12.542Z,87.40
2024-02-29T06:02:41.057Z,87.58
2024-02-29T06:05:11.207Z,87.70
2024-02-29T06:07:39.027Z,87.74
2024-02-29T06:10:10.313Z,87.38
2024-02-29T06:12:38.153Z,87.81
2024-02-29T06:15:10.702Z,87.98
2024-02-29T06:17:39.057Z,87.98
2024-02-29T06:20:11.787Z,87.92
2024-02-29T06:22:41.760Z,88.17
2024-02-29T06:25:11.322Z,88.07
2024-02-29T06:27:40.308Z,88.00
2024-02-29T06:30:09.532Z,87.92
2024-02-29T06:32:41.604Z,87.87
2024-02-29T06:35:10.250Z,88.34
2024-02-29T06:37:43.833Z,88.25
2024-02-29T06:40:13.284Z,87.99
2024-02-29T06:42:42.086Z,88.06
2024-02-29T06:45:11.704Z,88.00
2024-02-29T06:47:40.964Z,87.77
2024-02-29T06:50:10.139Z,87.79
2024-02-29T06:52:37.944Z,87.63
2024-02-29T06:55:09.068Z,87.53
2024-02-29T06:57:36.994Z,87.78
2024-02-29T07:00:07.170Z,87.68
2024-02-29T07:02:35.217Z,87.54
2024-02-29T07:05:03.128Z,87.52
2024-02-29T07:07:30.932Z,87.32
2024-02-29T07:09:58.781Z,87.69
2024-02-29T07:12:27.962Z,87.78
2024-02-29T07:14:55.690Z,87.82
2024-02-29T07:17:23.418Z,87.86
2024-02-29T07:19:51.110Z,87.63
2024-02-29T07:22:19.834Z,87.99
2024-02-29T07:24:47.954Z,88.16
2024-02-29T07:27:16.335Z,87.88
2024-02-29T07:29:45.485Z,88.38
2024-02-29T07:32:13.442Z,88.38
2024-02-29T07:34:41.160Z,88.48
2024-02-29T07:37:08.932Z,88.43
2024-02-29T07:39:36.887Z,88.42
2024-02-29T07:42:05.064Z,88.50
2024-02-29T07:44:33.800Z,88.26
2024-02-29T07:47:03.059Z,88.37
2024-02-29T07:49:32.925Z,88.54
2024-02-29T07:52:01.194Z,88.38
2024-02-29T07:54:28.952Z,88.65
2024-02-29T07:56:57.408Z,88.71
2024-02-29T07:59:26.784Z,88.56
2024-02-29T08:01:54.774Z,88.90
2024-02-29T08:04:23.947Z,89.25
2024-02-29T08:06:51.722Z,89.45
2024-02-29T08:09:19.685Z,88.92
2024-02-29T08:11:48.379Z,89.59
2024-02-29T08:14:19.021Z,88.98
2024-02-29T08:16:48.448Z,89.03
2024-02-29T08:19:17.541Z,89.20
2024-02-29T08:21:46.764Z,89.02
2024-02-29T08:24:14.613Z,89.36
2024-02-29T08:26:42.511Z,89.13
2024-02-29T08:29:14.396Z,89.69
2024-02-29T08:31:44.291Z,89.35
2024-02-29T08:34:12.391Z,89.58
2024-02-29T08:36:40.884Z,89.61
2024-02-29T08:39:10.237Z,89.62
2024-02-29T08:41:38.462Z,89.80
2024-02-29T08:44:06.428Z,89.24
2024-02-29T08:46:34.201Z,89.15
2024-02-29T08:49:03.641Z,89.07
2024-02-29T08:51:32.723Z,89.85
2024-02-29T08:54:00.613Z,89.31
2024-02-29T08:56:30.213Z,90.02
2024-02-29T08:58:58.014Z,90.34
2024-02-29T09:01:25.870Z,90.66
2024-02-29T09:03:54.313Z,90.64
2024-02-29T09:06:22.117Z,90.46
2024-02-29T09:08:50.332Z,90.43
2024-02-29T09:11:18.136Z,90.83
2024-02-29T09:13:47.758Z,90.69
2024-02-29T09:16:17.404Z,91.07
2024-02-29T09:18:45.485Z,91.10
2024-02-29T09:21:13.236Z,92.07
2024-02-29T09:23:41.709Z,91.75
2024-02-29T09:26:09.594Z,91.72
2024-02-29T09:28:37.369Z,91.76
2024-02-29T09:31:06.682Z,91.89
2024-02-29T09:33:34.429Z,92.03
2024-02-29T09:36:08.298Z,92.92
2024-02-29T09:38:36.800Z,92.70
2024-02-29T09:41:18.436Z,92.20
2024-02-29T09:43:54.396Z,92.55
2024-02-29T09:46:25.229Z,93.10
2024-02-29T09:48:53.845Z,92.64
2024-02-29T09:51:22.753Z,93.05
2024-02-29T09:53:51.880Z,93.22
2024-02-29T09:56:23.827Z,92.75
2024-02-29T09:58:52.259Z,92.89
2024-02-29T10:01:20.282Z,93.23
2024-02-29T10:03:49.553Z,93.24
2024-02-29T10:06:17.503Z,93.33
2024-02-29T10:08:45.298Z,93.28
2024-02-29T10:11:14.183Z,92.54
2024-02-29T10:13:43.036Z,91.84
2024-02-29T10:16:12.124Z,92.16
2024-02-29T10:18:40.246Z,92.14
2024-02-29T10:21:12.653Z,91.87
2024-02-29T10:23:41.267Z,91.58
2024-02-29T10:26:09.813Z,91.56
2024-02-29T10:28:37.775Z,91.48
2024-02-29T10:31:06.125Z,91.22
2024-02-29T10:33:38.890Z,91.30
2024-02-29T10:36:14.817Z,90.98
2024-02-29T10:38:42.680Z,90.62
2024-02-29T10:41:12.223Z,90.20
2024-02-29T10:43:40.230Z,90.04
2024-02-29T10:46:09.324Z,90.10
2024-02-29T10:48:44.778Z,90.84
2024-02-29T10:51:21.079Z,90.43
2024-02-29T10:53:51.890Z,90.55
2024-02-29T10:56:24.150Z,90.52
2024-02-29T10:58:58.872Z,90.46
2024-02-29T11:01:27.735Z,90.83
2024-02-29T11:03:55.546Z,90.70
2024-02-29T11:06:25.409Z,91.20
2024-02-29T11:08:53.545Z,91.04
2024-02-29T11:11:26.674Z,91.10
2024-02-29T11:14:04.912Z,91.08
2024-02-29T11:16:33.393Z,91.37
2024-02-29T11:19:04.656Z,91.23
2024-02-29T11:21:34.091Z,91.28
2024-02-29T11:24:05.574Z,91.47
2024-02-29T11:26:34.725Z,91.27
2024-02-29T11:29:13.301Z,91.59
2024-02-29T11:31:45.996Z,91.22
2024-02-29T11:34:13.801Z,91.35
2024-02-29T11:36:43.210Z,91.00
2024-02-29T11:39:12.046Z,91.49
2024-02-29T11:41:40.001Z,90.96
2024-02-29T11:44:07.744Z,91.34
2024-02-29T11:46:35.510Z,91.30
2024-02-29T11:49:03.856Z,91.47
2024-02-29T11:51:31.639Z,91.43
2024-02-29T11:54:00.840Z,91.71
2024-02-29T11:56:28.845Z,91.57
2024-02-29T11:58:56.649Z,91.53
2024-02-29T12:01:24.956Z,92.33
2024-02-29T12:03:53.243Z,93.50
2024-02-29T12:06:21.883Z,94.30
2024-02-29T12:08:50.440Z,96.13
2024-02-29T12:11:19.947Z,97.08
2024-02-29T12:13:47.796Z,97.13
2024-02-29T12:16:15.936Z,97.89
2024-02-29T12:18:42.850Z,98.39
2024-02-29T12:21:10.941Z,99.00
2024-02-29T12:23:40.745Z,99.46
2024-02-29T12:26:10.346Z,99.90
2024-02-29T12:28:40.714Z,100.00
2024-02-29T12:31:10.102Z,100.00
2024-02-29T12:33:38.796Z,100.00
2024-02-29T12:36:07.420Z,100.00
2024-02-29T12:38:35.912Z,100.00
2024-02-29T12:41:03.790Z,100.00
2024-02-29T12:43:31.642Z,100.00
2024-02-29T12:46:00.805Z,100.00
2024-02-29T12:48:28.535Z,100.00
2024-02-29T12:50:56.250Z,100.00
2024-02-29T12:53:23.991Z,100.00
2024-02-29T12:55:51.743Z,100.00
2024-02-29T12:58:19.676Z,100.00
2024-02-29T13:00:47.487Z,100.00
2024-02-29T13:03:16.850Z,100.00
2024-02-29T13:05:45.518Z,100.00
2024-02-29T13:08:13.281Z,100.00
2024-02-29T13:10:41.098Z,100.00
2024-02-29T13:13:10.608Z,100.00
2024-02-29T13:15:39.049Z,100.00
2024-02-29T13:18:06.954Z,100.00
2024-02-29T13:20:36.194Z,100.00
2024-02-29T13:23:03.945Z,100.00
2024-02-29T13:25:31.858Z,100.00
2024-02-29T13:27:59.861Z,100.00
2024-02-29T13:30:27.578Z,100.00
2024-02-29T13:32:57.297Z,99.96
2024-02-29T13:35:25.059Z,99.22
2024-02-29T13:37:54.465Z,98.52
2024-02-29T13:40:22.348Z,98.17
2024-02-29T13:42:50.238Z,98.64
2024-02-29T13:45:17.968Z,98.91
2024-02-29T13:47:50.211Z,98.17
2024-02-29T13:50:19.933Z,99.22
2024-02-29T13:52:47.705Z,98.70
2024-02-29T13:55:17.234Z,98.33
2024-02-29T13:57:45.275Z,97.81
2024-02-29T14:00:13.344Z,97.90
2024-02-29T14:02:41.164Z,97.41
2024-02-29T14:05:09.596Z,97.19
2024-02-29T14:07:37.333Z,96.66
2024-02-29T14:10:05.851Z,96.31
2024-02-29T14:12:36.352Z,96.88
2024-02-29T14:15:04.599Z,96.40
2024-02-29T14:17:31.366Z,95.53
2024-02-29T14:19:59.147Z,96.39
2024-02-29T14:22:27.019Z,96.21
2024-02-29T14:24:54.920Z,95.33
2024-02-29T14:27:24.155Z,95.09
2024-02-29T14:29:53.349Z,95.57
2024-02-29T14:32:21.159Z,95.69
2024-02-29T14:34:48.961Z,95.01
2024-02-29T14:37:16.920Z,94.94
2024-02-29T14:39:45.313Z,95.57
2024-02-29T14:42:15.214Z,95.36
2024-02-29T14:44:43.151Z,95.30
2024-02-29T14:47:12.394Z,94.90
2024-02-29T14:49:41.018Z,94.45
2024-02-29T14:52:08.959Z,94.37
2024-02-29T14:54:36.868Z,94.91
2024-02-29T14:57:04.849Z,94.84
2024-02-29T14:59:32.588Z,95.01
2024-02-29T15:02:00.474Z,94.87
2024-02-29T15:04:29.807Z,95.37
2024-02-29T15:06:57.663Z,95.36
2024-02-29T15:09:25.477Z,95.96
2024-02-29T15:11:53.230Z,96.14
2024-02-29T15:14:21.001Z,96.14
2024-02-29T15:16:48.840Z,96.31
2024-02-29T15:19:16.656Z,96.19
2024-02-29T15:21:45.935Z,96.34
2024-02-29T15:24:13.750Z,96.68
2024-02-29T15:26:44.537Z,96.08
2024-02-29T15:29:12.279Z,96.41
2024-02-29T15:31:41.052Z,95.71
2024-02-29T15:34:09.025Z,95.83
2024-02-29T15:36:36.906Z,96.34
2024-02-29T15:39:06.205Z,96.13
2024-02-29T15:41:35.925Z,96.01
2024-02-29T15:44:03.660Z,96.01
2024-02-29T15:46:31.492Z,95.98
2024-02-29T15:48:59.384Z,95.93
2024-02-29T15:51:27.663Z,95.63
2024-02-29T15:53:55.378Z,96.31
2024-02-29T15:56:24.529Z,96.24
2024-02-29T15:58:52.511Z,96.10
2024-02-29T16:01:20.410Z,95.88
2024-02-29T16:03:48.267Z,96.04
2024-02-29T16:06:16.138Z,96.30
2024-02-29T16:08:43.872Z,96.08
2024-02-29T16:11:11.675Z,96.30
2024-02-29T16:13:40.913Z,96.83
2024-02-29T16:16:08.946Z,96.89
2024-02-29T16:18:36.768Z,97.06
2024-02-29T16:21:07.140Z,97.45
2024-02-29T16:23:35.738Z,97.95
2024-02-29T16:26:03.522Z,97.80
2024-02-29T16:28:31.478Z,98.19
2024-02-29T16:31:00.749Z,97.97
2024-02-29T16:33:28.598Z,97.95
2024-02-29T16:35:56.448Z,97.78
2024-02-29T16:38:24.255Z,98.49
2024-02-29T16:40:55.690Z,98.25
2024-02-29T16:43:23.806Z,99.04
2024-02-29T16:45:51.595Z,99.09
2024-02-29T16:48:20.932Z,98.87
2024-02-29T16:50:48.664Z,98.40
2024-02-29T16:53:16.409Z,97.60
2024-02-29T16:55:44.196Z,98.04
2024-02-29T16:58:12.305Z,97.97
2024-02-29T17:00:40.182Z,97.80
2024-02-29T17:03:07.999Z,97.20
2024-02-29T17:05:37.087Z,96.70
2024-02-29T17:08:05.426Z,95.62
2024-02-29T17:10:33.306Z,95.40
2024-02-29T17:13:01.510Z,94.78
2024-02-29T17:15:29.270Z,94.40
2024-02-29T17:17:57.015Z,93.30
2024-02-29T17:20:24.783Z,92.21
2024-02-29T17:22:53.803Z,91.76
2024-02-29T17:25:21.571Z,91.20
2024-02-29T17:29:15.725Z,90.38
2024-02-29T17:31:43.430Z,90.66
2024-02-29T17:34:11.198Z,90.10
2024-02-29T17:36:39.009Z,89.83
2024-02-29T17:39:44.383Z,90.10
2024-02-29T17:42:12.137Z,89.59
2024-02-29T17:44:39.916Z,88.84
2024-02-29T17:47:07.702Z,88.74
2024-02-29T17:49:35.521Z,88.33
2024-02-29T17:52:03.262Z,88.10
2024-02-29T17:54:31.002Z,88.08
2024-02-29T17:57:00.191Z,87.73
2024-02-29T17:59:27.929Z,87.58
2024-02-29T18:01:55.706Z,87.39
2024-02-29T18:04:23.542Z,86.98
2024-02-29T18:06:52.447Z,86.96
2024-02-29T18:09:20.509Z,87.27
2024-02-29T18:11:48.350Z,86.75
2024-02-29T18:14:19.903Z,86.60
2024-02-29T18:16:47.775Z,86.53
2024-02-29T18:19:15.791Z,86.46
2024-02-29T18:21:44.941Z,86.35
2024-02-29T18:24:13.103Z,85.67
2024-02-29T18:26:40.848Z,86.03
2024-02-29T18:29:08.639Z,85.42
2024-02-29T18:31:37.767Z,84.87
2024-02-29T18:34:05.471Z,84.30
2024-02-29T18:36:33.246Z,84.42
2024-02-29T18:39:00.969Z,84.17
2024-02-29T18:41:29.649Z,83.43
2024-02-29T18:43:57.678Z,82.91
2024-02-29T18:46:25.493Z,82.70
2024-02-29T18:48:54.752Z,82.96
2024-02-29T18:51:22.486Z,82.01
2024-02-29T18:54:44.424Z,82.00
2024-02-29T18:57:12.135Z,81.80
2024-02-29T18:59:39.827Z,81.11
2024-02-29T19:02:08.382Z,80.77
2024-02-29T19:04:36.408Z,81.24
2024-02-29T19:07:04.284Z,80.66
2024-02-29T19:09:32.671Z,80.54
2024-02-29T19:12:01.804Z,79.92
2024-02-29T19:14:29.519Z,79.24
2024-02-29T19:16:57.322Z,79.77
2024-02-29T19:19:26.273Z,79.39
2024-02-29T19:21:54.133Z,79.43
2024-02-29T19:24:21.893Z,79.56
2024-02-29T19:26:48.738Z,79.23
2024-02-29T19:29:17.908Z,78.60
2024-02-29T19:31:45.698Z,78.98
2024-02-29T19:34:14.209Z,78.62
2024-02-29T19:36:42.153Z,78.54
2024-02-29T19:39:10.298Z,78.24
2024-02-29T19:41:38.051Z,77.69
2024-02-29T19:44:06.144Z,77.91
2024-02-29T19:46:35.367Z,77.71
2024-02-29T19:49:03.312Z,77.46
2024-02-29T19:51:31.088Z,77.27
2024-02-29T19:53:58.791Z,77.33
2024-02-29T19:56:26.519Z,76.67
2024-02-29T19:58:56.885Z,76.44
2024-02-29T20:01:24.845Z,75.92
2024-02-29T20:03:54.218Z,75.62
2024-02-29T20:06:22.425Z,75.68
2024-02-29T20:08:50.251Z,75.94
2024-02-29T20:11:18.123Z,76.38
2024-02-29T20:13:46.733Z,76.89
2024-02-29T20:16:14.528Z,77.28
2024-02-29T20:18:42.324Z,78.18
2024-02-29T20:21:11.739Z,77.98
2024-02-29T20:23:39.454Z,78.80
2024-02-29T20:26:07.201Z,78.94
2024-02-29T20:28:35.044Z,79.05
2024-02-29T20:31:05.876Z,79.60
2024-02-29T20:33:33.685Z,79.29
2024-02-29T20:36:01.415Z,79.63
2024-02-29T20:38:31.181Z,78.76
2024-02-29T20:40:58.945Z,78.38
2024-02-29T20:43:26.846Z,77.52
2024-02-29T20:45:54.837Z,77.62
2024-02-29T20:48:22.595Z,77.05
2024-02-29T20:50:50.447Z,76.57
2024-02-29T20:53:18.190Z,76.71
2024-02-29T20:55:47.358Z,76.11
2024-02-29T20:58:15.760Z,75.32
2024-02-29T21:00:43.644Z,76.01
2024-02-29T21:03:11.477Z,76.18
2024-02-29T21:05:39.336Z,76.07
2024-02-29T21:08:07.640Z,75.84
2024-02-29T21:10:40.396Z,76.47
2024-02-29T21:13:13.501Z,76.98
2024-02-29T21:15:41.472Z,77.21
2024-02-29T21:18:09.225Z,77.30
2024-02-29T21:20:36.984Z,77.22
2024-02-29T21:23:05.408Z,76.83
2024-02-29T21:25:33.353Z,77.24
2024-02-29T21:28:03.080Z,77.66
2024-02-29T21:30:32.772Z,77.51
2024-02-29T21:33:00.750Z,77.39
2024-02-29T21:35:28.974Z,76.92
2024-02-29T21:37:56.751Z,77.50
2024-02-29T21:42:48.642Z,77.00
2024-02-29T21:45:16.930Z,77.01
2024-02-29T21:47:44.672Z,77.29
2024-02-29T21:50:12.836Z,77.19
2024-02-29T21:52:40.662Z,77.18
2024-02-29T21:55:09.323Z,76.94
2024-02-29T21:57:37.097Z,77.07
2024-02-29T22:00:09.428Z,76.62
2024-02-29T22:02:37.109Z,76.37
2024-02-29T22:05:05.566Z,76.33
2024-02-29T22:07:33.375Z,76.01
2024-02-29T22:10:01.366Z,75.72
2024-02-29T22:12:29.275Z,75.57
2024-02-29T22:14:57.398Z,75.30
2024-02-29T22:17:26.603Z,75.26
2024-02-29T22:19:54.345Z,75.31
2024-02-29T22:22:22.051Z,75.42
2024-02-29T22:24:49.750Z,75.28
2024-02-29T22:27:17.622Z,75.12
2024-02-29T22:29:45.355Z,75.29
2024-02-29T22:32:13.300Z,75.97
2024-02-29T22:34:42.477Z,76.02
2024-02-29T22:37:10.314Z,75.68
2024-02-29T22:39:38.149Z,75.74
2024-02-29T22:42:07.163Z,76.25
2024-02-29T22:44:35.184Z,76.90
2024-02-29T22:47:02.870Z,76.77
2024-02-29T22:49:30.878Z,76.35
2024-02-29T22:52:00.110Z,77.22
2024-02-29T22:54:27.977Z,76.62
2024-02-29T22:56:55.682Z,76.72
2024-02-29T22:59:23.382Z,76.88
2024-02-29T23:01:51.323Z,76.74
2024-02-29T23:04:19.463Z,76.53
2024-02-29T23:06:47.664Z,76.80
2024-02-29T23:09:18.038Z,76.62
2024-02-29T23:11:45.738Z,76.50
2024-02-29T23:14:13.415Z,76.55
2024-02-29T23:16:41.203Z,76.24
2024-02-29T23:19:09.080Z,75.99
2024-02-29T23:21:37.049Z,76.23
2024-02-29T23:24:05.086Z,76.03
2024-02-29T23:26:34.279Z,76.04
2024-02-29T23:29:02.389Z,76.27
2024-02-29T23:31:30.179Z,76.35
2024-02-29T23:33:57.966Z,76.03
2024-02-29T23:36:25.667Z,76.37
2024-02-29T23:38:53.354Z,76.00
2024-02-29T23:41:21.441Z,75.87
2024-02-29T23:43:52.738Z,75.57
2024-02-29T23:46:20.720Z,75.98
2024-02-29T23:48:48.666Z,75.19
2024-02-29T23:51:17.678Z,75.35
2024-02-29T23:53:45.356Z,74.83
2024-02-29T23:56:13.044Z,74.29
2024-02-29T23:58:42.421Z,74.20
